Time;durP1;ratioP1;P1;durP2;ratioP2;P2;SDS_P1;SDS_P2;PMS_P1;PMS_P2;Temp;Humidity;BMP_temperature;BMP_pressure;BME280_temperature;BME280_humidity;BME280_pressure;Samples;Min_cycle;Max_cycle;Signal;HPM_P1;HPM_P2
2022/06/08 00:02:14;;;;;;;1.37;1.10;;;;;;;17.21;69.02;100304.28;4976630;28;20240;-81
2022/06/08 00:04:41;;;;;;;1.37;1.27;;;;;;;17.21;69.23;100306.13;4983528;28;20777;-82
2022/06/08 00:07:08;;;;;;;1.50;1.40;;;;;;;17.18;69.41;100296.53;4986466;28;20297;-81
2022/06/08 00:09:35;;;;;;;1.93;1.50;;;;;;;17.17;69.53;100300.22;4992293;28;20687;-81
2022/06/08 00:12:01;;;;;;;1.67;1.47;;;;;;;17.15;69.63;100302.22;4981178;28;20293;-81
2022/06/08 00:14:29;;;;;;;2.30;1.40;;;;;;;17.14;69.64;100297.81;4985266;28;20205;-81
2022/06/08 00:16:56;;;;;;;2.23;1.30;;;;;;;17.12;69.75;100298.97;4986495;28;20238;-82
2022/06/08 00:19:23;;;;;;;2.67;1.57;;;;;;;17.10;69.68;100292.88;4992673;28;20807;-81
2022/06/08 00:21:49;;;;;;;1.93;1.73;;;;;;;17.09;69.84;100302.78;4991917;28;20324;-81
2022/06/08 00:24:18;;;;;;;2.20;1.70;;;;;;;17.09;69.88;100307.31;4990117;28;20236;-81
2022/06/08 00:26:44;;;;;;;3.20;1.77;;;;;;;17.06;69.95;100303.09;4975327;28;20292;-81
2022/06/08 00:29:11;;;;;;;2.43;1.80;;;;;;;17.06;70.32;100296.84;4979732;28;20269;-83
2022/06/08 00:31:39;;;;;;;2.17;1.70;;;;;;;17.04;70.29;100297.00;4987375;28;20309;-81
2022/06/08 00:34:05;;;;;;;1.53;1.43;;;;;;;17.02;70.61;100283.69;4975221;28;20200;-81
2022/06/08 00:36:32;;;;;;;2.00;1.77;;;;;;;17.02;70.62;100290.91;4986745;28;20212;-82
2022/06/08 00:38:59;;;;;;;2.00;1.80;;;;;;;17.01;70.85;100289.25;4977663;28;20312;-82
2022/06/08 00:41:43;;;;;;;1.87;1.77;;;;;;;17.00;70.82;100288.41;4990698;28;20204;-82
2022/06/08 00:44:15;;;;;;;2.20;2.00;;;;;;;16.99;70.98;100292.09;4986135;28;20215;-81
2022/06/08 00:46:45;;;;;;;2.17;1.93;;;;;;;16.98;71.17;100290.38;4984883;28;20204;-81
2022/06/08 00:49:20;;;;;;;1.67;1.50;;;;;;;16.98;71.12;100295.75;4983047;28;20379;-81
2022/06/08 00:51:47;;;;;;;1.93;1.83;;;;;;;16.98;71.20;100292.22;4988073;28;20201;-80
2022/06/08 00:54:21;;;;;;;2.03;1.70;;;;;;;16.96;71.20;100286.13;4991827;28;20226;-81
2022/06/08 00:56:52;;;;;;;3.10;2.17;;;;;;;16.95;71.16;100287.13;4991524;28;20233;-80
2022/06/08 00:59:19;;;;;;;2.30;1.80;;;;;;;16.95;71.37;100279.91;4992040;28;20761;-82
2022/06/08 01:01:48;;;;;;;2.27;2.00;;;;;;;16.94;71.33;100270.16;4991471;28;20266;-81
2022/06/08 01:04:17;;;;;;;2.20;2.00;;;;;;;16.93;71.46;100270.28;4984470;28;20229;-81
2022/06/08 01:06:48;;;;;;;2.20;2.00;;;;;;;16.92;71.72;100279.34;4980666;28;20210;-81
2022/06/08 01:09:19;;;;;;;2.13;1.80;;;;;;;16.91;71.81;100274.97;4981764;28;20572;-81
2022/06/08 01:11:47;;;;;;;2.00;1.90;;;;;;;16.89;71.76;100274.25;4980237;28;20537;-81
2022/06/08 01:14:16;;;;;;;2.33;2.17;;;;;;;16.88;71.99;100268.03;4988682;28;20568;-81
2022/06/08 01:16:46;;;;;;;2.60;2.40;;;;;;;16.88;71.97;100259.97;4990593;28;20202;-81
2022/06/08 01:19:14;;;;;;;2.90;2.70;;;;;;;16.87;72.19;100266.34;4979192;28;20228;-81
2022/06/08 01:22:01;;;;;;;2.73;2.53;;;;;;;16.87;72.45;100260.94;4979471;28;20243;-81
2022/06/08 01:24:28;;;;;;;2.73;2.53;;;;;;;16.86;72.72;100251.19;4988089;28;20688;-81
2022/06/08 01:27:11;;;;;;;2.67;2.47;;;;;;;16.88;72.51;100253.72;4988476;28;20207;-81
2022/06/08 01:29:44;;;;;;;2.27;2.07;;;;;;;16.88;72.76;100253.72;4985262;28;20723;-81
2022/06/08 01:35:22;;;;;;;2.50;2.30;;;;;;;16.76;71.99;100253.06;4983067;28;20582;-80
2022/06/08 01:38:01;;;;;;;3.67;2.67;;;;;;;16.69;72.29;100243.88;4985318;28;20205;-80
2022/06/08 01:40:45;;;;;;;3.20;2.67;;;;;;;16.62;72.48;100246.31;4985342;28;20712;-81
2022/06/08 01:43:27;;;;;;;3.60;2.60;;;;;;;16.56;72.46;100235.25;4986635;28;20232;-81
2022/06/08 01:46:08;;;;;;;2.80;2.60;;;;;;;16.50;72.84;100236.69;4977000;28;20202;-81
2022/06/08 01:48:48;;;;;;;2.90;2.70;;;;;;;16.46;73.35;100246.06;4983907;28;20221;-82
2022/06/08 01:51:24;;;;;;;2.67;2.37;;;;;;;16.42;73.66;100236.56;4987400;28;20198;-81
2022/06/08 01:54:02;;;;;;;2.57;2.37;;;;;;;16.40;73.87;100238.56;4976558;28;20207;-81
2022/06/08 01:56:40;;;;;;;2.77;2.57;;;;;;;16.38;73.91;100235.16;4983421;28;20216;-80
2022/06/08 01:59:18;;;;;;;2.27;2.07;;;;;;;16.38;74.36;100234.31;4978879;28;20220;-80
2022/06/08 02:01:50;;;;;;;2.60;2.40;;;;;;;16.38;74.35;100235.16;4981859;28;20230;-80
2022/06/08 02:04:29;;;;;;;2.90;2.70;;;;;;;16.39;74.50;100230.63;4979341;28;20207;-81
2022/06/08 02:07:07;;;;;;;2.80;2.60;;;;;;;16.36;74.27;100226.41;4977616;28;20196;-81
2022/06/08 02:09:40;;;;;;;4.03;2.60;;;;;;;16.31;74.55;100224.13;4990803;28;20248;-81
2022/06/08 02:12:10;;;;;;;2.50;2.30;;;;;;;16.29;74.88;100219.91;4979535;28;20205;-81
2022/06/08 02:14:41;;;;;;;2.60;2.40;;;;;;;16.29;75.00;100218.09;4981545;28;20575;-81
2022/06/08 02:17:14;;;;;;;3.90;3.50;;;;;;;16.29;75.64;100222.59;4988512;28;20185;-80
2022/06/08 02:19:45;;;;;;;3.70;3.47;;;;;;;16.28;76.26;100213.69;4987067;28;20878;-81
2022/06/08 02:22:17;;;;;;;3.63;3.33;;;;;;;16.29;76.54;100217.22;4983955;28;20221;-80
2022/06/08 02:24:50;;;;;;;3.70;3.40;;;;;;;16.27;76.75;100205.78;4989950;28;20206;-80
2022/06/08 02:27:23;;;;;;;3.73;3.10;;;;;;;16.26;77.06;100214.81;4974750;28;20193;-80
2022/06/08 02:29:55;;;;;;;3.50;3.20;;;;;;;16.24;77.21;100212.28;4990791;28;20234;-81
2022/06/08 02:35:15;;;;;;;3.87;3.57;;;;;;;16.24;77.88;100216.81;4990026;28;20215;-83
2022/06/08 02:37:45;;;;;;;3.47;3.27;;;;;;;16.25;77.93;100213.13;4982869;28;20201;-82
2022/06/08 02:40:17;;;;;;;4.17;3.87;;;;;;;16.26;77.87;100213.00;4988934;28;20217;-81
2022/06/08 02:42:46;;;;;;;4.53;4.13;;;;;;;16.25;78.40;100208.59;4982427;28;20578;-82
2022/06/08 02:45:16;;;;;;;4.57;4.13;;;;;;;16.24;78.56;100212.28;4994456;28;20219;-80
2022/06/08 02:47:46;;;;;;;4.20;3.80;;;;;;;16.20;78.22;100204.66;4990175;28;20207;-81
2022/06/08 02:50:17;;;;;;;4.33;3.93;;;;;;;16.17;78.42;100207.63;4985898;28;20613;-80
2022/06/08 02:52:46;;;;;;;3.80;3.53;;;;;;;16.11;78.91;100209.06;4982595;28;20217;-81
2022/06/08 02:55:19;;;;;;;4.03;3.73;;;;;;;16.06;79.01;100210.47;4990670;28;20231;-80
2022/06/08 02:57:50;;;;;;;4.00;3.70;;;;;;;16.02;79.63;100209.03;4994529;28;20206;-82
2022/06/08 03:00:23;;;;;;;6.50;3.70;;;;;;;16.00;80.37;100211.03;4994673;28;20220;-81
2022/06/08 03:02:55;;;;;;;5.53;5.03;;;;;;;16.02;81.09;100211.75;4990381;28;20248;-83
2022/06/08 03:05:25;;;;;;;5.70;4.83;;;;;;;16.06;81.62;100210.47;4982286;28;20205;-81
2022/06/08 03:07:55;;;;;;;4.73;4.27;;;;;;;16.09;81.98;100210.19;4986411;28;20192;-81
2022/06/08 03:10:27;;;;;;;5.57;4.63;;;;;;;16.12;82.28;100209.91;4986557;28;20248;-81
2022/06/08 03:13:01;;;;;;;4.50;4.10;;;;;;;16.13;82.63;100209.72;4994210;28;20205;-80
2022/06/08 03:15:28;;;;;;;4.47;4.17;;;;;;;16.16;82.92;100213.97;4993291;28;20207;-80
2022/06/08 03:17:54;;;;;;;4.13;3.83;;;;;;;16.17;82.93;100221.03;4990529;28;20576;-81
2022/06/08 03:20:23;;;;;;;4.23;3.90;;;;;;;16.16;82.79;100212.13;4985118;28;20231;-82
2022/06/08 03:22:49;;;;;;;4.60;4.13;;;;;;;16.15;82.93;100206.91;4987440;28;20239;-80
2022/06/08 03:25:16;;;;;;;4.10;3.70;;;;;;;16.14;82.99;100214.13;4989999;28;20212;-81
2022/06/08 03:27:46;;;;;;;4.10;3.80;;;;;;;16.13;82.48;100212.41;4988770;28;20234;-82
2022/06/08 03:30:13;;;;;;;4.67;4.20;;;;;;;16.13;82.74;100219.63;4990130;28;21308;-81
2022/06/08 03:32:40;;;;;;;4.33;3.93;;;;;;;16.12;82.65;100220.66;4990861;28;20208;-82
2022/06/08 03:35:07;;;;;;;5.07;3.80;;;;;;;16.12;82.66;100223.34;4987367;28;20211;-80
2022/06/08 03:37:34;;;;;;;3.87;3.57;;;;;;;16.11;82.64;100222.50;4986417;28;20216;-81
2022/06/08 03:40:01;;;;;;;4.73;3.70;;;;;;;16.11;82.68;100224.31;4983922;28;20218;-81
2022/06/08 03:42:27;;;;;;;4.40;3.37;;;;;;;16.11;82.59;100222.50;4982363;28;20234;-81
2022/06/08 03:44:55;;;;;;;4.37;4.00;;;;;;;16.12;82.50;100223.34;4986662;28;20212;-81
2022/06/08 03:47:25;;;;;;;4.43;4.03;;;;;;;16.11;82.54;100219.81;4989712;28;20238;-81
2022/06/08 03:49:53;;;;;;;4.60;4.17;;;;;;;16.12;82.59;100217.97;4982660;28;20595;-80
2022/06/08 03:52:24;;;;;;;4.33;4.03;;;;;;;16.13;82.63;100220.47;4991643;28;20199;-80
2022/06/08 03:54:55;;;;;;;6.57;4.97;;;;;;;16.14;82.48;100222.19;4993546;28;20213;-80
2022/06/08 03:57:23;;;;;;;4.90;4.50;;;;;;;16.16;82.70;100228.25;4976622;28;20206;-80
2022/06/08 03:59:51;;;;;;;4.77;4.37;;;;;;;16.18;82.64;100226.28;4985811;28;20225;-81
2022/06/08 04:02:19;;;;;;;4.37;4.07;;;;;;;16.20;82.66;100231.50;4992467;28;20208;-81
2022/06/08 04:04:46;;;;;;;5.63;4.10;;;;;;;16.24;82.85;100232.94;4992602;28;20252;-81
2022/06/08 04:07:13;;;;;;;4.13;3.73;;;;;;;16.27;82.71;100235.34;4985417;28;20631;-82
2022/06/08 04:09:39;;;;;;;4.33;3.93;;;;;;;16.29;82.96;100239.56;4987444;28;20230;-81
2022/06/08 04:12:07;;;;;;;4.30;3.20;;;;;;;16.32;83.29;100233.03;4983093;28;20208;-81
2022/06/08 04:14:33;;;;;;;4.53;4.07;;;;;;;16.36;83.20;100226.41;4975109;28;20209;-81
2022/06/08 04:17:01;;;;;;;3.60;3.30;;;;;;;16.38;82.92;100227.09;4984348;28;20220;-81
2022/06/08 04:19:29;;;;;;;3.67;3.37;;;;;;;16.42;82.96;100228.50;4982886;28;20739;-81
2022/06/08 04:21:56;;;;;;;4.57;4.17;;;;;;;16.43;82.86;100222.16;4986787;28;20202;-82
2022/06/08 04:24:25;;;;;;;4.80;3.80;;;;;;;16.45;82.84;100217.47;4988797;28;20233;-82
2022/06/08 04:26:53;;;;;;;4.33;3.93;;;;;;;16.48;82.73;100219.84;4975247;28;20205;-81
2022/06/08 04:29:20;;;;;;;4.63;4.23;;;;;;;16.52;82.79;100223.09;4985874;28;20239;-81
2022/06/08 04:31:46;;;;;;;4.50;4.20;;;;;;;16.54;82.67;100218.44;4980851;28;20204;-80
2022/06/08 04:34:14;;;;;;;6.53;4.43;;;;;;;16.57;82.40;100226.22;4986990;28;20218;-81
2022/06/08 04:36:44;;;;;;;5.03;4.63;;;;;;;16.61;82.41;100224.94;4992613;28;20252;-80
2022/06/08 04:39:13;;;;;;;5.57;5.07;;;;;;;16.64;82.33;100214.78;4992329;28;20238;-81
2022/06/08 04:41:40;;;;;;;4.63;4.23;;;;;;;16.69;82.12;100221.53;4983083;28;20218;-81
2022/06/08 04:44:08;;;;;;;5.17;4.77;;;;;;;16.72;82.11;100222.09;4990197;28;20233;-81
2022/06/08 04:46:35;;;;;;;5.27;4.77;;;;;;;16.74;81.94;100216.56;4983929;28;20209;-82
2022/06/08 04:49:01;;;;;;;5.00;4.70;;;;;;;16.77;81.59;100217.13;4983248;28;20253;-81
2022/06/08 04:51:28;;;;;;;4.73;4.33;;;;;;;16.80;81.60;100219.53;4989483;28;20216;-82
2022/06/08 04:53:56;;;;;;;4.97;4.40;;;;;;;16.83;81.39;100221.06;4985871;28;20207;-81
2022/06/08 04:56:23;;;;;;;4.50;4.20;;;;;;;16.86;81.32;100218.06;4991253;28;20217;-82
2022/06/08 04:58:50;;;;;;;4.77;4.10;;;;;;;16.89;81.00;100215.09;4977884;28;20231;-82
2022/06/08 05:01:16;;;;;;;5.87;4.70;;;;;;;16.89;80.70;100204.31;4986211;28;20619;-82
2022/06/08 05:03:43;;;;;;;4.50;4.20;;;;;;;16.92;80.63;100209.41;4983191;28;20225;-81
2022/06/08 05:06:09;;;;;;;4.93;4.43;;;;;;;16.95;80.44;100211.81;4984598;28;20206;-80
2022/06/08 05:08:36;;;;;;;4.77;4.30;;;;;;;16.97;80.40;100207.13;4988838;28;20253;-82
2022/06/08 05:11:05;;;;;;;5.23;4.73;;;;;;;17.00;80.02;100214.91;4982986;28;20240;-81
2022/06/08 05:13:33;;;;;;;4.77;4.37;;;;;;;17.04;79.93;100210.06;4981718;28;20208;-81
2022/06/08 05:16:01;;;;;;;4.53;4.07;;;;;;;17.06;79.79;100213.44;4981702;28;20212;-81
2022/06/08 05:18:28;;;;;;;4.40;4.10;;;;;;;17.07;79.73;100210.63;4979904;28;20210;-81
2022/06/08 05:20:55;;;;;;;4.67;4.27;;;;;;;17.09;79.56;100211.31;4985892;28;20941;-81
2022/06/08 05:23:25;;;;;;;4.40;4.00;;;;;;;17.12;79.36;100211.03;4980767;28;20235;-82
2022/06/08 05:25:53;;;;;;;4.93;4.53;;;;;;;17.15;79.43;100209.88;4978754;28;20657;-82
2022/06/08 05:28:22;;;;;;;4.13;3.73;;;;;;;17.17;79.16;100219.50;4983230;28;20205;-80
2022/06/08 05:30:49;;;;;;;3.93;3.63;;;;;;;17.19;79.10;100217.50;4982467;28;20219;-80
2022/06/08 05:33:17;;;;;;;4.33;4.03;;;;;;;17.23;79.38;100205.41;4984377;28;20199;-81
2022/06/08 05:35:44;;;;;;;4.30;3.90;;;;;;;17.30;79.32;100216.44;4981049;28;20211;-81
2022/06/08 05:38:11;;;;;;;4.60;3.97;;;;;;;17.35;79.14;100215.00;4987953;28;20223;-81
2022/06/08 05:40:38;;;;;;;4.17;3.80;;;;;;;17.41;79.15;100218.06;4984549;28;20694;-81
2022/06/08 05:43:06;;;;;;;4.03;3.73;;;;;;;17.46;79.06;100224.69;4981608;28;20228;-82
2022/06/08 05:45:34;;;;;;;4.00;3.53;;;;;;;17.50;78.77;100225.25;4981593;28;20212;-81
2022/06/08 05:48:02;;;;;;;3.73;3.37;;;;;;;17.55;78.39;100221.09;4979860;28;20201;-83
2022/06/08 05:50:29;;;;;;;4.10;3.80;;;;;;;17.57;78.41;100219.09;4979929;28;20281;-81
2022/06/08 05:52:56;;;;;;;3.27;2.93;;;;;;;17.60;78.07;100220.63;4986633;28;20207;-81
2022/06/08 05:55:24;;;;;;;3.40;3.20;;;;;;;17.62;77.86;100213.25;4982778;28;20222;-82
2022/06/08 05:57:51;;;;;;;3.83;3.43;;;;;;;17.65;77.71;100219.22;4979105;28;20211;-82
2022/06/08 06:00:20;;;;;;;4.00;3.60;;;;;;;17.71;77.65;100215.06;4979992;28;20310;-83
2022/06/08 06:02:49;;;;;;;3.60;3.13;;;;;;;17.79;77.73;100223.22;4982131;28;20558;-82
2022/06/08 06:05:17;;;;;;;3.40;3.20;;;;;;;17.93;77.68;100221.81;4984002;28;20243;-83
2022/06/08 06:07:45;;;;;;;3.60;3.30;;;;;;;18.07;77.23;100215.06;4979443;28;20215;-83
2022/06/08 06:10:13;;;;;;;3.67;3.37;;;;;;;18.22;76.82;100227.81;4976423;28;20687;-82
2022/06/08 06:12:40;;;;;;;4.10;3.80;;;;;;;18.34;75.98;100226.56;4982534;28;20216;-83
2022/06/08 06:15:07;;;;;;;3.83;3.40;;;;;;;18.45;75.64;100222.75;4980978;28;20202;-82
2022/06/08 06:17:34;;;;;;;3.63;3.33;;;;;;;18.56;75.06;100219.81;4988999;28;20569;-82
2022/06/08 06:20:02;;;;;;;3.80;3.50;;;;;;;18.64;74.33;100222.56;4983006;28;20230;-83
2022/06/08 06:22:32;;;;;;;3.57;3.30;;;;;;;18.71;74.08;100220.94;4990153;28;20205;-82
2022/06/08 06:24:59;;;;;;;4.53;4.23;;;;;;;18.79;72.96;100219.31;4988851;28;20227;-82
2022/06/08 06:27:25;;;;;;;4.43;4.03;;;;;;;18.83;72.61;100223.34;4986018;28;20215;-82
2022/06/08 06:29:52;;;;;;;4.83;3.70;;;;;;;18.86;72.30;100209.53;4985813;28;20231;-82
2022/06/08 06:32:22;;;;;;;4.50;4.17;;;;;;;18.94;72.36;100215.00;4983782;28;20210;-82
2022/06/08 06:34:49;;;;;;;4.73;4.33;;;;;;;19.02;71.63;100220.41;4984867;28;20201;-82
2022/06/08 06:37:17;;;;;;;4.10;3.80;;;;;;;19.08;71.52;100226.00;4985260;28;20700;-82
2022/06/08 06:39:43;;;;;;;4.07;3.77;;;;;;;19.13;71.00;100225.53;4981172;28;20231;-81
2022/06/08 06:42:15;;;;;;;4.63;4.20;;;;;;;19.17;70.64;100215.28;4980059;28;20210;-81
2022/06/08 06:44:41;;;;;;;4.40;4.10;;;;;;;19.20;70.72;100215.75;4985001;28;20207;-81
2022/06/08 06:47:08;;;;;;;5.00;4.60;;;;;;;19.26;70.56;100220.53;4982664;28;20210;-81
2022/06/08 06:49:35;;;;;;;6.07;5.53;;;;;;;19.31;69.80;100220.03;4990233;28;20225;-81
2022/06/08 06:52:01;;;;;;;5.93;5.43;;;;;;;19.36;69.50;100223.06;4988110;28;20283;-82
2022/06/08 06:54:29;;;;;;;6.00;5.50;;;;;;;19.37;68.65;100214.81;4984099;28;20203;-82
2022/06/08 06:56:56;;;;;;;6.57;6.00;;;;;;;19.38;68.37;100216.50;4987552;28;20228;-81
2022/06/08 06:59:22;;;;;;;6.80;6.00;;;;;;;19.40;68.27;100217.19;4985529;28;20238;-82
2022/06/08 07:01:49;;;;;;;5.97;5.47;;;;;;;19.42;68.22;100217.03;4987949;28;20205;-82
2022/06/08 07:04:18;;;;;;;6.40;5.90;;;;;;;19.48;68.44;100216.38;4985907;28;20226;-82
2022/06/08 07:06:44;;;;;;;7.77;7.07;;;;;;;19.56;68.17;100218.25;4987344;28;20210;-82
2022/06/08 07:09:11;;;;;;;6.53;6.03;;;;;;;19.65;68.13;100217.28;4980604;28;20223;-80
2022/06/08 07:11:40;;;;;;;7.47;6.77;;;;;;;19.74;68.06;100211.72;4989226;28;20664;-82
2022/06/08 07:14:11;;;;;;;6.90;6.30;;;;;;;19.91;67.28;100223.38;4980870;28;20206;-81
2022/06/08 07:16:37;;;;;;;7.07;6.47;;;;;;;19.99;66.94;100218.00;4971997;28;20204;-82
2022/06/08 07:19:05;;;;;;;6.17;5.67;;;;;;;20.11;66.30;100213.94;4975369;28;20763;-82
2022/06/08 07:21:32;;;;;;;8.20;6.20;;;;;;;20.27;66.36;100206.84;4982804;28;20210;-82
2022/06/08 07:23:59;;;;;;;6.60;6.00;;;;;;;20.44;66.07;100198.56;4980702;28;20220;-82
2022/06/08 07:26:27;;;;;;;6.43;5.83;;;;;;;20.61;65.13;100191.25;4985289;28;20211;-83
2022/06/08 07:28:56;;;;;;;6.60;6.07;;;;;;;20.78;64.97;100192.91;4985567;28;20253;-82
2022/06/08 07:31:23;;;;;;;6.23;5.73;;;;;;;20.95;63.91;100185.59;4978592;28;20207;-82
2022/06/08 07:33:50;;;;;;;6.13;5.53;;;;;;;21.07;63.14;100183.34;4979965;28;20221;-83
2022/06/08 07:36:17;;;;;;;5.83;5.33;;;;;;;21.21;62.17;100179.91;4982387;28;20214;-82
2022/06/08 07:38:44;;;;;;;5.57;5.07;;;;;;;21.31;61.67;100171.56;4985815;28;20230;-83
2022/06/08 07:41:10;;;;;;;5.57;5.10;;;;;;;21.41;60.39;100172.19;4992313;28;20237;-82
2022/06/08 07:43:37;;;;;;;5.33;4.80;;;;;;;21.51;59.94;100170.06;4990205;28;20211;-82
2022/06/08 07:46:06;;;;;;;5.00;4.50;;;;;;;21.59;59.11;100174.59;4993942;28;20222;-82
2022/06/08 07:51:16;;;;;;;3.23;3.03;;;;;;;21.49;56.71;100174.84;4989432;28;20213;-82
2022/06/08 07:53:43;;;;;;;2.73;2.43;;;;;;;21.38;56.32;100170.66;4983747;28;20582;-82
2022/06/08 07:56:09;;;;;;;4.10;3.40;;;;;;;21.36;56.82;100164.59;4994584;28;20242;-84
2022/06/08 07:58:36;;;;;;;3.80;3.50;;;;;;;21.38;57.26;100154.41;4993434;28;20232;-81
2022/06/08 08:01:02;;;;;;;4.37;3.97;;;;;;;21.50;57.18;100154.03;4992941;28;20199;-83
2022/06/08 08:03:30;;;;;;;3.28;2.97;;;;;;;21.63;57.12;100143.41;4993428;28;20583;-81
2022/06/08 08:05:57;;;;;;;3.00;2.80;;;;;;;21.76;57.27;100130.09;4990496;28;20225;-82
2022/06/08 08:08:23;;;;;;;3.33;3.03;;;;;;;21.88;56.85;100133.22;4980478;28;20291;-82
2022/06/08 08:10:50;;;;;;;2.33;2.17;;;;;;;21.97;55.58;100127.56;4989000;28;20207;-82
2022/06/08 08:13:16;;;;;;;2.92;2.58;;;;;;;22.07;54.93;100128.16;4984245;28;20207;-82
2022/06/08 08:15:44;;;;;;;2.95;2.63;;;;;;;22.14;54.43;100129.13;4985718;28;20204;-82
2022/06/08 08:18:12;;;;;;;3.05;2.20;;;;;;;22.25;54.22;100125.09;4983811;28;20212;-82
2022/06/08 08:20:40;;;;;;;2.63;2.20;;;;;;;22.37;53.21;100120.06;4992537;28;20231;-82
2022/06/08 08:23:07;;;;;;;2.40;2.20;;;;;;;22.46;52.29;100127.09;4992285;28;20547;-82
2022/06/08 08:25:34;;;;;;;1.98;1.88;;;;;;;22.57;52.03;100125.78;4984062;28;20239;-82
2022/06/08 08:28:00;;;;;;;3.20;2.13;;;;;;;22.64;51.47;100119.41;4991000;28;20219;-82
2022/06/08 08:30:29;;;;;;;2.35;1.98;;;;;;;22.74;50.77;100124.56;4979678;28;20584;-82
2022/06/08 08:32:55;;;;;;;3.40;1.80;;;;;;;22.79;50.28;100117.56;4983942;28;20215;-82
2022/06/08 08:35:24;;;;;;;1.90;1.75;;;;;;;22.85;49.70;100127.66;4991925;28;20202;-83
2022/06/08 08:37:53;;;;;;;1.92;1.83;;;;;;;22.94;49.61;100116.69;4984540;28;20200;-83
2022/06/08 08:40:38;;;;;;;2.00;1.85;;;;;;;22.97;48.89;100111.72;4986089;28;20228;-83
2022/06/08 08:43:07;;;;;;;3.17;2.15;;;;;;;23.01;49.37;100114.91;4991822;28;20281;-83
2022/06/08 08:45:43;;;;;;;2.65;2.38;;;;;;;23.12;49.53;100107.09;4987914;28;20967;-83
2022/06/08 08:48:15;;;;;;;1.73;1.63;;;;;;;23.19;49.43;100107.19;4993142;28;20196;-83
2022/06/08 08:50:48;;;;;;;1.80;1.70;;;;;;;23.24;48.97;100110.16;4991859;28;20199;-82
2022/06/08 08:53:23;;;;;;;2.35;2.15;;;;;;;23.27;48.83;100104.34;4984345;28;20210;-81
2022/06/08 08:55:55;;;;;;;2.63;1.90;;;;;;;23.33;48.86;100097.28;4989852;28;20999;-81
2022/06/08 08:58:27;;;;;;;2.08;1.60;;;;;;;23.41;48.59;100092.59;4991713;28;20231;-81
2022/06/08 09:00:56;;;;;;;1.60;1.50;;;;;;;23.45;48.17;100085.75;4991629;28;20211;-82
2022/06/08 09:03:29;;;;;;;1.50;1.40;;;;;;;23.48;47.59;100087.19;4990279;28;20207;-81
2022/06/08 09:05:59;;;;;;;2.10;1.50;;;;;;;23.50;47.65;100083.25;4986899;28;20226;-82
2022/06/08 09:08:28;;;;;;;2.65;2.03;;;;;;;23.56;47.33;100075.41;4984540;28;20207;-82
2022/06/08 09:10:59;;;;;;;1.65;1.20;;;;;;;23.56;46.72;100075.41;4985758;28;20211;-82
2022/06/08 09:13:34;;;;;;;1.80;1.50;;;;;;;23.59;47.50;100081.28;4972557;28;20201;-81
2022/06/08 09:16:00;;;;;;;1.90;1.80;;;;;;;23.62;47.14;100080.06;4988766;28;20194;-81
2022/06/08 09:18:36;;;;;;;2.33;1.52;;;;;;;23.66;47.53;100075.91;4982639;28;20674;-81
2022/06/08 09:21:24;;;;;;;1.67;1.58;;;;;;;23.70;47.26;100074.47;4988866;28;20198;-82
2022/06/08 09:23:54;;;;;;;1.85;1.45;;;;;;;23.77;46.81;100068.06;4980425;28;20886;-82
2022/06/08 09:26:31;;;;;;;2.47;1.45;;;;;;;23.84;46.98;100063.50;4981723;28;20643;-81
2022/06/08 09:29:00;;;;;;;2.08;1.48;;;;;;;23.97;46.34;100070.09;4989649;28;20223;-82
2022/06/08 09:31:29;;;;;;;1.30;1.20;;;;;;;24.05;45.94;100062.63;4982419;28;20203;-82
2022/06/08 09:34:14;;;;;;;1.60;1.50;;;;;;;24.14;45.75;100063.31;4980140;28;20209;-82
2022/06/08 09:36:42;;;;;;;5.32;1.67;;;;;;;24.19;44.68;100066.25;4979462;28;20205;-83
2022/06/08 09:39:13;;;;;;;2.58;1.50;;;;;;;24.23;45.29;100053.94;4987412;28;20689;-83
2022/06/08 09:41:48;;;;;;;3.65;1.50;;;;;;;24.32;45.44;100052.78;4983375;28;20210;-82
2022/06/08 09:44:20;;;;;;;2.42;2.22;;;;;;;24.47;45.09;100053.50;4991787;28;20226;-85
2022/06/08 09:52:43;;;;;;;2.15;1.30;;;;;;;24.56;43.59;100046.00;4988030;28;20210;-83
2022/06/08 09:55:23;;;;;;;1.42;1.30;;;;;;;24.66;43.13;100046.47;4987605;28;20203;-81
2022/06/08 09:57:59;;;;;;;1.50;1.40;;;;;;;24.78;42.82;100047.56;4990601;28;20286;-82
2022/06/08 10:00:33;;;;;;;1.70;1.58;;;;;;;24.86;41.84;100041.09;4979302;28;20234;-82
2022/06/08 10:03:21;;;;;;;5.05;4.57;;;;;;;24.98;41.75;100041.38;4984746;28;20206;-81
2022/06/08 10:05:56;;;;;;;1.60;1.50;;;;;;;25.10;41.30;100040.56;4985507;28;20211;-82
2022/06/08 10:08:25;;;;;;;2.08;1.40;;;;;;;25.23;40.70;100039.78;4986180;28;20233;-82
2022/06/08 10:11:02;;;;;;;1.65;1.55;;;;;;;25.38;41.08;100039.59;4981773;28;20207;-82
2022/06/08 10:13:37;;;;;;;1.80;1.70;;;;;;;25.47;40.48;100032.84;4985047;28;20210;-82
2022/06/08 10:16:11;;;;;;;1.55;1.45;;;;;;;25.54;40.89;100036.44;4989275;28;20726;-81
2022/06/08 10:18:43;;;;;;;1.33;1.20;;;;;;;25.62;41.05;100025.34;4983722;28;20320;-81
2022/06/08 10:21:15;;;;;;;2.35;1.23;;;;;;;25.74;41.09;100025.56;4985194;28;20203;-81
2022/06/08 10:23:47;;;;;;;1.88;1.52;;;;;;;25.88;40.46;100011.69;4982043;28;20681;-81
2022/06/08 10:26:23;;;;;;;1.88;1.30;;;;;;;26.01;39.78;100021.75;4987922;28;20272;-81
2022/06/08 10:28:52;;;;;;;1.70;1.48;;;;;;;26.12;39.07;100012.09;4991529;28;20245;-81
2022/06/08 10:31:24;;;;;;;1.60;1.50;;;;;;;26.18;39.54;100012.06;4990597;28;20203;-81
2022/06/08 10:33:58;;;;;;;1.52;1.42;;;;;;;26.33;39.69;100017.31;4991566;28;20208;-81
2022/06/08 10:36:25;;;;;;;2.90;2.70;;;;;;;26.48;39.37;100008.88;4983474;28;20250;-81
2022/06/08 10:38:52;;;;;;;2.10;1.75;;;;;;;26.50;38.13;100010.34;4985226;28;20223;-81
2022/06/08 10:44:32;;;;;;;1.88;1.77;;;;;;;26.34;38.30;100007.22;4978920;28;20204;-82
2022/06/08 10:47:16;;;;;;;1.50;1.40;;;;;;;26.32;37.99;100012.06;4985915;28;20203;-81
2022/06/08 10:49:52;;;;;;;1.73;1.33;;;;;;;26.33;38.31;100013.75;4984560;28;20286;-81
2022/06/08 10:52:29;;;;;;;1.80;1.70;;;;;;;26.33;38.20;100019.22;4983581;28;20199;-81
2022/06/08 10:55:37;;;;;;;1.60;1.50;;;;;;;26.31;37.89;100021.31;4979358;28;20215;-81
2022/06/08 10:58:18;;;;;;;1.52;1.42;;;;;;;26.27;38.13;100018.97;4989682;28;20207;-81
2022/06/08 11:00:58;;;;;;;1.40;1.30;;;;;;;26.33;37.97;100011.88;4980677;28;20208;-81
2022/06/08 11:03:51;;;;;;;1.70;1.40;;;;;;;26.44;37.55;100007.63;4987381;28;20199;-81
2022/06/08 11:06:57;;;;;;;1.88;1.30;;;;;;;26.53;37.27;99996.22;4992560;28;20702;-81
2022/06/08 11:09:51;;;;;;;2.17;1.45;;;;;;;26.50;36.75;100004.03;4984633;28;20227;-81
2022/06/08 11:12:30;;;;;;;1.20;1.20;;;;;;;26.45;36.59;99999.22;4979978;28;20578;-81
2022/06/08 11:15:01;;;;;;;1.40;1.27;;;;;;;26.33;36.98;100000.94;4992689;28;20207;-81
2022/06/08 11:17:32;;;;;;;2.38;1.50;;;;;;;26.30;37.51;100004.09;4986604;28;20222;-81
2022/06/08 11:20:05;;;;;;;1.77;1.48;;;;;;;26.31;37.71;100000.31;4988119;28;20223;-81
2022/06/08 11:22:37;;;;;;;1.50;1.40;;;;;;;26.31;37.11;99994.00;4989374;28;20784;-81
2022/06/08 11:25:07;;;;;;;1.40;1.30;;;;;;;26.30;37.30;99993.19;4994413;28;20215;-81
2022/06/08 11:27:35;;;;;;;1.50;1.40;;;;;;;26.30;37.04;99987.72;4988362;28;20843;-81
2022/06/08 11:30:27;;;;;;;1.52;1.42;;;;;;;26.32;36.88;99998.44;4991419;28;20238;-81
2022/06/08 11:33:16;;;;;;;1.52;1.42;;;;;;;26.34;36.97;99990.81;4981038;28;20215;-82
2022/06/08 11:36:14;;;;;;;1.85;1.75;;;;;;;26.34;37.34;99988.09;4989984;28;20200;-81
2022/06/08 11:38:56;;;;;;;1.70;1.60;;;;;;;26.33;37.83;99979.09;4988354;28;20694;-82
2022/06/08 11:41:40;;;;;;;1.63;1.52;;;;;;;26.33;38.24;99986.44;4989247;28;20566;-82
2022/06/08 11:44:14;;;;;;;1.52;1.42;;;;;;;26.25;38.24;99980.13;4984692;28;20226;-81
2022/06/08 11:46:45;;;;;;;1.85;1.75;;;;;;;26.17;38.16;99979.50;4985516;28;20207;-81
2022/06/08 11:49:32;;;;;;;1.60;1.50;;;;;;;26.09;38.06;99980.59;4987154;28;20330;-81
2022/06/08 11:51:59;;;;;;;1.73;1.63;;;;;;;26.07;38.59;99974.53;4983492;28;20289;-82
2022/06/08 11:54:31;;;;;;;1.95;1.70;;;;;;;26.04;38.73;99969.47;4983480;28;20688;-81
2022/06/08 11:57:12;;;;;;;1.80;1.70;;;;;;;26.02;38.71;99965.28;4986225;28;20218;-81
2022/06/08 11:59:43;;;;;;;1.73;1.50;;;;;;;25.97;38.87;99965.13;4976611;28;20234;-81
2022/06/08 12:02:20;;;;;;;2.05;1.70;;;;;;;25.93;38.96;99959.25;4980241;28;20231;-81